KSEP/SEP METAR and TAF weather

Enter ICAO airport designator
Station Type Date Time Source
KSEP METAR 2022/06/30 01:15 UTC NOAA

KSEP 300115Z AUTO 09005KT 10SM SCT090 32/11 A3010 RMK AO2 T03150110


Station Type Date Time Source
KSEP Decoded METAR 2022/06/30 01:15 UTC NOAA

Stephenville, Clark Field Municipal Airport, TX, United States (KSEP) 32-13N 098-11W 402M
Jun 29, 2022 - 09:15 PM EDT / 2022.06.30 0115 UTC
Wind: from the E (090 degrees) at 6 MPH (5 KT):0
Visibility: 10 mile(s):0
Sky conditions: partly cloudy
Temperature: 88.7 F (31.5 C)
Dew Point: 51.8 F (11.0 C)
Relative Humidity: 28%
Pressure (altimeter): 30.1 in. Hg (1019 hPa)
ob: KSEP 300115Z AUTO 09005KT 10SM SCT090 32/11 A3010 RMK AO2 T03150110
cycle: 1

Station Type Date Time Source
KSEP TAF UTC NOAA

Error!

Example: see airport list